Terminal Aerodrome Forecast
Issued by NWS Binghamton, NY

Current Version | Previous Version | Text Only | Print | Product List | Glossary On
Versions: 1 2 3 4 5 6 7 8 9 10 11 12 13 14 15 16 17 18
000
FTUS41 KBGM 241726
TAFBGM
TAF
KBGM 241726Z 2418/2518 14008G15KT P6SM FEW060 SCT250
     FM250500 13009KT P6SM BKN100
     FM251000 12013G24KT P6SM -RA OVC035
     FM251300 12012G22KT P6SM -RA OVC015
     FM251500 11011G19KT 5SM -RA BR OVC008=

USA.gov is the U.S. government's official web portal to all federal, state and local government web resources and services.